sensor_id;sensor_type;location;lat;lon;timestamp;temperature;humidity
10155;DHT22;5118;48.570;7.916;2022-08-19T00:01:35;21.80;99.90
10155;DHT22;5118;48.570;7.916;2022-08-19T00:04:08;21.80;99.90
10155;DHT22;5118;48.570;7.916;2022-08-19T00:06:39;21.80;99.90
10155;DHT22;5118;48.570;7.916;2022-08-19T00:09:10;21.80;99.90
10155;DHT22;5118;48.570;7.916;2022-08-19T00:11:40;21.80;99.90
10155;DHT22;5118;48.570;7.916;2022-08-19T00:14:11;21.80;99.90
10155;DHT22;5118;48.570;7.916;2022-08-19T00:16:41;21.80;99.90
10155;DHT22;5118;48.570;7.916;2022-08-19T00:19:12;21.80;99.90
10155;DHT22;5118;48.570;7.916;2022-08-19T00:21:41;21.80;99.90
10155;DHT22;5118;48.570;7.916;2022-08-19T00:24:13;21.80;99.90
10155;DHT22;5118;48.570;7.916;2022-08-19T00:26:43;21.80;99.90
10155;DHT22;5118;48.570;7.916;2022-08-19T00:29:14;21.80;99.90
10155;DHT22;5118;48.570;7.916;2022-08-19T00:31:44;21.70;99.90
10155;DHT22;5118;48.570;7.916;2022-08-19T00:34:15;21.70;99.90
10155;DHT22;5118;48.570;7.916;2022-08-19T00:36:45;21.70;99.90
10155;DHT22;5118;48.570;7.916;2022-08-19T00:39:14;21.70;99.90
10155;DHT22;5118;48.570;7.916;2022-08-19T00:41:44;21.70;99.90
10155;DHT22;5118;48.570;7.916;2022-08-19T00:44:17;21.70;99.90
10155;DHT22;5118;48.570;7.916;2022-08-19T00:46:54;21.70;99.90
10155;DHT22;5118;48.570;7.916;2022-08-19T00:49:31;21.70;99.90
10155;DHT22;5118;48.570;7.916;2022-08-19T00:52:04;21.70;99.90
10155;DHT22;5118;48.570;7.916;2022-08-19T00:54:37;21.70;99.90
10155;DHT22;5118;48.570;7.916;2022-08-19T00:57:09;21.70;99.90
10155;DHT22;5118;48.570;7.916;2022-08-19T00:59:40;21.60;99.90
10155;DHT22;5118;48.570;7.916;2022-08-19T01:02:28;21.60;99.90
10155;DHT22;5118;48.570;7.916;2022-08-19T01:04:59;21.60;99.90
10155;DHT22;5118;48.570;7.916;2022-08-19T01:07:28;21.60;99.90
10155;DHT22;5118;48.570;7.916;2022-08-19T01:10:07;21.50;99.90
10155;DHT22;5118;48.570;7.916;2022-08-19T01:12:37;21.50;99.90
10155;DHT22;5118;48.570;7.916;2022-08-19T01:15:08;21.50;99.90
10155;DHT22;5118;48.570;7.916;2022-08-19T01:17:38;21.50;99.90
10155;DHT22;5118;48.570;7.916;2022-08-19T01:20:12;21.50;99.90
10155;DHT22;5118;48.570;7.916;2022-08-19T01:22:46;21.50;99.90
10155;DHT22;5118;48.570;7.916;2022-08-19T01:25:16;21.50;99.90
10155;DHT22;5118;48.570;7.916;2022-08-19T01:27:48;21.50;99.90
10155;DHT22;5118;48.570;7.916;2022-08-19T01:30:23;21.50;99.90
10155;DHT22;5118;48.570;7.916;2022-08-19T01:32:53;21.50;99.90
10155;DHT22;5118;48.570;7.916;2022-08-19T01:35:24;21.50;99.90
10155;DHT22;5118;48.570;7.916;2022-08-19T01:37:58;21.50;99.90
10155;DHT22;5118;48.570;7.916;2022-08-19T01:40:29;21.50;99.90
10155;DHT22;5118;48.570;7.916;2022-08-19T01:42:59;21.50;99.90
10155;DHT22;5118;48.570;7.916;2022-08-19T01:45:29;21.50;99.90
10155;DHT22;5118;48.570;7.916;2022-08-19T01:47:59;21.50;99.90
10155;DHT22;5118;48.570;7.916;2022-08-19T01:50:29;21.50;99.90
10155;DHT22;5118;48.570;7.916;2022-08-19T01:53:01;21.50;99.90
10155;DHT22;5118;48.570;7.916;2022-08-19T01:55:36;21.40;99.90
10155;DHT22;5118;48.570;7.916;2022-08-19T01:58:11;21.40;99.90
10155;DHT22;5118;48.570;7.916;2022-08-19T02:00:41;21.40;99.90
10155;DHT22;5118;48.570;7.916;2022-08-19T02:03:10;21.40;99.90
10155;DHT22;5118;48.570;7.916;2022-08-19T02:05:39;21.40;99.90
10155;DHT22;5118;48.570;7.916;2022-08-19T02:08:10;21.40;99.90
10155;DHT22;5118;48.570;7.916;2022-08-19T02:10:40;21.40;99.90
10155;DHT22;5118;48.570;7.916;2022-08-19T02:13:09;21.40;99.90
10155;DHT22;5118;48.570;7.916;2022-08-19T02:15:38;21.40;99.90
10155;DHT22;5118;48.570;7.916;2022-08-19T02:18:07;21.40;99.90
10155;DHT22;5118;48.570;7.916;2022-08-19T02:20:37;21.40;99.90
10155;DHT22;5118;48.570;7.916;2022-08-19T02:23:08;21.40;99.90
10155;DHT22;5118;48.570;7.916;2022-08-19T02:25:40;21.40;99.90
10155;DHT22;5118;48.570;7.916;2022-08-19T02:28:09;21.40;99.90
10155;DHT22;5118;48.570;7.916;2022-08-19T02:30:44;21.40;99.90
10155;DHT22;5118;48.570;7.916;2022-08-19T02:33:13;21.40;99.90
10155;DHT22;5118;48.570;7.916;2022-08-19T02:35:43;21.40;99.90
10155;DHT22;5118;48.570;7.916;2022-08-19T02:38:13;21.30;99.90
10155;DHT22;5118;48.570;7.916;2022-08-19T02:40:56;21.30;99.90
10155;DHT22;5118;48.570;7.916;2022-08-19T02:43:27;21.30;99.90
10155;DHT22;5118;48.570;7.916;2022-08-19T02:46:01;21.30;99.90
10155;DHT22;5118;48.570;7.916;2022-08-19T02:48:29;21.20;99.90
10155;DHT22;5118;48.570;7.916;2022-08-19T02:51:00;21.20;99.90
10155;DHT22;5118;48.570;7.916;2022-08-19T02:53:30;21.20;99.90
10155;DHT22;5118;48.570;7.916;2022-08-19T02:55:59;21.20;99.90
10155;DHT22;5118;48.570;7.916;2022-08-19T02:58:27;21.20;99.90
10155;DHT22;5118;48.570;7.916;2022-08-19T03:00:56;21.20;99.90
10155;DHT22;5118;48.570;7.916;2022-08-19T03:03:26;21.20;99.90
10155;DHT22;5118;48.570;7.916;2022-08-19T03:06:06;21.20;99.90
10155;DHT22;5118;48.570;7.916;2022-08-19T03:08:37;21.20;99.90
10155;DHT22;5118;48.570;7.916;2022-08-19T03:11:06;21.20;99.90
10155;DHT22;5118;48.570;7.916;2022-08-19T03:13:40;21.30;99.90
10155;DHT22;5118;48.570;7.916;2022-08-19T03:16:10;21.20;99.90
10155;DHT22;5118;48.570;7.916;2022-08-19T03:18:39;21.30;99.90
10155;DHT22;5118;48.570;7.916;2022-08-19T03:21:08;21.30;99.90
10155;DHT22;5118;48.570;7.916;2022-08-19T03:23:40;21.30;99.90
10155;DHT22;5118;48.570;7.916;2022-08-19T03:26:08;21.30;99.90
10155;DHT22;5118;48.570;7.916;2022-08-19T03:28:43;21.30;99.90
10155;DHT22;5118;48.570;7.916;2022-08-19T03:31:19;21.30;99.90
10155;DHT22;5118;48.570;7.916;2022-08-19T03:34:08;21.30;99.90
10155;DHT22;5118;48.570;7.916;2022-08-19T03:36:39;21.30;99.90
10155;DHT22;5118;48.570;7.916;2022-08-19T03:39:09;21.30;99.90
10155;DHT22;5118;48.570;7.916;2022-08-19T03:41:40;21.30;99.90
10155;DHT22;5118;48.570;7.916;2022-08-19T03:44:12;21.30;99.90
10155;DHT22;5118;48.570;7.916;2022-08-19T03:46:46;21.30;99.90
10155;DHT22;5118;48.570;7.916;2022-08-19T03:49:19;21.40;99.90
10155;DHT22;5118;48.570;7.916;2022-08-19T03:51:57;21.40;99.90
10155;DHT22;5118;48.570;7.916;2022-08-19T03:54:29;21.40;99.90
10155;DHT22;5118;48.570;7.916;2022-08-19T03:56:57;21.40;99.90
10155;DHT22;5118;48.570;7.916;2022-08-19T03:59:29;21.40;99.90
10155;DHT22;5118;48.570;7.916;2022-08-19T04:02:00;21.30;99.90
10155;DHT22;5118;48.570;7.916;2022-08-19T04:04:29;21.30;99.90
10155;DHT22;5118;48.570;7.916;2022-08-19T04:06:59;21.30;99.90
10155;DHT22;5118;48.570;7.916;2022-08-19T04:09:29;21.20;99.90
10155;DHT22;5118;48.570;7.916;2022-08-19T04:11:57;21.30;99.90
10155;DHT22;5118;48.570;7.916;2022-08-19T04:14:29;21.20;99.90
10155;DHT22;5118;48.570;7.916;2022-08-19T04:16:59;21.20;99.90
10155;DHT22;5118;48.570;7.916;2022-08-19T04:19:32;21.20;99.90
10155;DHT22;5118;48.570;7.916;2022-08-19T04:22:02;21.20;99.90
10155;DHT22;5118;48.570;7.916;2022-08-19T04:24:33;21.20;99.90
10155;DHT22;5118;48.570;7.916;2022-08-19T04:27:03;21.20;99.90
10155;DHT22;5118;48.570;7.916;2022-08-19T04:29:33;21.20;99.90
10155;DHT22;5118;48.570;7.916;2022-08-19T04:32:03;21.30;99.90
10155;DHT22;5118;48.570;7.916;2022-08-19T04:34:36;21.20;99.90
10155;DHT22;5118;48.570;7.916;2022-08-19T04:37:26;21.20;99.90
10155;DHT22;5118;48.570;7.916;2022-08-19T04:40:03;21.30;99.90
10155;DHT22;5118;48.570;7.916;2022-08-19T04:42:50;21.30;99.90
10155;DHT22;5118;48.570;7.916;2022-08-19T04:45:19;21.20;99.90
10155;DHT22;5118;48.570;7.916;2022-08-19T04:47:49;21.20;99.90
10155;DHT22;5118;48.570;7.916;2022-08-19T04:50:25;21.30;99.90
10155;DHT22;5118;48.570;7.916;2022-08-19T04:52:54;21.20;99.90
10155;DHT22;5118;48.570;7.916;2022-08-19T04:55:25;21.30;99.90
10155;DHT22;5118;48.570;7.916;2022-08-19T04:57:54;21.30;99.90
10155;DHT22;5118;48.570;7.916;2022-08-19T05:00:23;21.30;99.90
10155;DHT22;5118;48.570;7.916;2022-08-19T05:02:51;21.30;99.90
10155;DHT22;5118;48.570;7.916;2022-08-19T05:05:20;21.30;99.90
10155;DHT22;5118;48.570;7.916;2022-08-19T05:07:49;21.30;99.90
10155;DHT22;5118;48.570;7.916;2022-08-19T05:10:17;21.30;99.90
10155;DHT22;5118;48.570;7.916;2022-08-19T05:12:47;21.30;99.90
10155;DHT22;5118;48.570;7.916;2022-08-19T05:15:16;21.30;99.90
10155;DHT22;5118;48.570;7.916;2022-08-19T05:17:46;21.30;99.90
10155;DHT22;5118;48.570;7.916;2022-08-19T05:20:29;21.30;99.90
10155;DHT22;5118;48.570;7.916;2022-08-19T05:23:15;21.40;99.90
10155;DHT22;5118;48.570;7.916;2022-08-19T05:25:48;21.50;99.90
10155;DHT22;5118;48.570;7.916;2022-08-19T05:28:19;21.40;99.90
10155;DHT22;5118;48.570;7.916;2022-08-19T05:30:48;21.50;99.90
10155;DHT22;5118;48.570;7.916;2022-08-19T05:33:18;21.50;99.90
10155;DHT22;5118;48.570;7.916;2022-08-19T05:35:47;21.50;99.90
10155;DHT22;5118;48.570;7.916;2022-08-19T05:38:17;21.60;99.90
10155;DHT22;5118;48.570;7.916;2022-08-19T05:40:45;21.60;99.90
10155;DHT22;5118;48.570;7.916;2022-08-19T05:43:15;21.60;99.90
10155;DHT22;5118;48.570;7.916;2022-08-19T05:45:46;21.60;99.90
10155;DHT22;5118;48.570;7.916;2022-08-19T05:48:14;21.60;99.90
10155;DHT22;5118;48.570;7.916;2022-08-19T05:50:44;21.60;99.90
10155;DHT22;5118;48.570;7.916;2022-08-19T05:53:13;21.70;99.90
10155;DHT22;5118;48.570;7.916;2022-08-19T05:55:43;21.70;99.90
10155;DHT22;5118;48.570;7.916;2022-08-19T05:58:12;21.70;99.90
10155;DHT22;5118;48.570;7.916;2022-08-19T06:00:42;21.70;99.90
10155;DHT22;5118;48.570;7.916;2022-08-19T06:03:13;21.70;99.90
10155;DHT22;5118;48.570;7.916;2022-08-19T06:05:41;21.70;99.90
10155;DHT22;5118;48.570;7.916;2022-08-19T06:08:19;21.70;99.90
10155;DHT22;5118;48.570;7.916;2022-08-19T06:11:16;21.80;99.90
10155;DHT22;5118;48.570;7.916;2022-08-19T06:13:47;21.80;99.90
10155;DHT22;5118;48.570;7.916;2022-08-19T06:16:25;21.80;99.90
10155;DHT22;5118;48.570;7.916;2022-08-19T06:18:56;21.90;99.90
10155;DHT22;5118;48.570;7.916;2022-08-19T06:21:27;21.90;99.90
10155;DHT22;5118;48.570;7.916;2022-08-19T06:23:56;22.00;99.90
10155;DHT22;5118;48.570;7.916;2022-08-19T06:26:25;22.10;99.90
10155;DHT22;5118;48.570;7.916;2022-08-19T06:28:55;22.10;99.90
10155;DHT22;5118;48.570;7.916;2022-08-19T06:31:25;22.20;99.90
10155;DHT22;5118;48.570;7.916;2022-08-19T06:33:56;22.20;99.90
10155;DHT22;5118;48.570;7.916;2022-08-19T06:36:30;22.30;99.90
10155;DHT22;5118;48.570;7.916;2022-08-19T06:39:02;22.30;99.90
10155;DHT22;5118;48.570;7.916;2022-08-19T06:41:34;22.30;99.90
10155;DHT22;5118;48.570;7.916;2022-08-19T06:44:17;22.30;99.90
10155;DHT22;5118;48.570;7.916;2022-08-19T06:46:46;22.30;99.90
10155;DHT22;5118;48.570;7.916;2022-08-19T06:49:22;22.30;99.90
10155;DHT22;5118;48.570;7.916;2022-08-19T06:51:59;22.30;99.90
10155;DHT22;5118;48.570;7.916;2022-08-19T06:54:29;22.40;99.90
10155;DHT22;5118;48.570;7.916;2022-08-19T06:57:04;22.40;99.90
10155;DHT22;5118;48.570;7.916;2022-08-19T06:59:33;22.40;99.90
10155;DHT22;5118;48.570;7.916;2022-08-19T07:02:04;22.50;99.90
10155;DHT22;5118;48.570;7.916;2022-08-19T07:04:35;22.50;99.90
10155;DHT22;5118;48.570;7.916;2022-08-19T07:07:10;22.60;99.90
10155;DHT22;5118;48.570;7.916;2022-08-19T07:09:47;22.60;99.90
10155;DHT22;5118;48.570;7.916;2022-08-19T07:12:27;22.70;99.90
10155;DHT22;5118;48.570;7.916;2022-08-19T07:14:58;22.70;99.90
10155;DHT22;5118;48.570;7.916;2022-08-19T07:17:27;22.80;99.90
10155;DHT22;5118;48.570;7.916;2022-08-19T07:19:58;22.90;99.90
10155;DHT22;5118;48.570;7.916;2022-08-19T07:22:33;22.90;99.90
10155;DHT22;5118;48.570;7.916;2022-08-19T07:25:03;22.90;99.90
10155;DHT22;5118;48.570;7.916;2022-08-19T07:27:31;22.90;99.90
10155;DHT22;5118;48.570;7.916;2022-08-19T07:30:01;23.00;99.90
10155;DHT22;5118;48.570;7.916;2022-08-19T07:32:29;23.20;99.90
10155;DHT22;5118;48.570;7.916;2022-08-19T07:35:00;23.30;99.90
10155;DHT22;5118;48.570;7.916;2022-08-19T07:37:30;23.40;99.90
10155;DHT22;5118;48.570;7.916;2022-08-19T07:39:59;23.40;99.90
10155;DHT22;5118;48.570;7.916;2022-08-19T07:42:28;23.50;99.90
10155;DHT22;5118;48.570;7.916;2022-08-19T07:44:58;23.70;99.90
10155;DHT22;5118;48.570;7.916;2022-08-19T07:47:27;23.70;99.90
10155;DHT22;5118;48.570;7.916;2022-08-19T07:50:16;23.80;99.90
10155;DHT22;5118;48.570;7.916;2022-08-19T07:52:47;23.90;99.90
10155;DHT22;5118;48.570;7.916;2022-08-19T07:55:19;24.10;99.90
10155;DHT22;5118;48.570;7.916;2022-08-19T07:58:08;24.20;99.90
10155;DHT22;5118;48.570;7.916;2022-08-19T08:00:37;24.30;99.90
10155;DHT22;5118;48.570;7.916;2022-08-19T08:03:06;24.40;99.90
10155;DHT22;5118;48.570;7.916;2022-08-19T08:05:37;24.50;99.90
10155;DHT22;5118;48.570;7.916;2022-08-19T08:08:23;24.60;99.90
10155;DHT22;5118;48.570;7.916;2022-08-19T08:11:15;24.70;99.90
10155;DHT22;5118;48.570;7.916;2022-08-19T08:13:47;24.60;99.90
10155;DHT22;5118;48.570;7.916;2022-08-19T08:16:33;24.70;99.90
10155;DHT22;5118;48.570;7.916;2022-08-19T08:19:13;24.80;99.90
10155;DHT22;5118;48.570;7.916;2022-08-19T08:21:54;24.80;99.90
10155;DHT22;5118;48.570;7.916;2022-08-19T08:24:24;24.80;99.90
10155;DHT22;5118;48.570;7.916;2022-08-19T08:26:55;24.70;99.90
10155;DHT22;5118;48.570;7.916;2022-08-19T08:29:26;24.70;99.90
10155;DHT22;5118;48.570;7.916;2022-08-19T08:32:01;24.80;99.90
10155;DHT22;5118;48.570;7.916;2022-08-19T08:34:41;24.90;99.90
10155;DHT22;5118;48.570;7.916;2022-08-19T08:37:11;25.00;99.90
10155;DHT22;5118;48.570;7.916;2022-08-19T08:39:42;25.10;99.90
10155;DHT22;5118;48.570;7.916;2022-08-19T08:42:19;25.20;99.90
10155;DHT22;5118;48.570;7.916;2022-08-19T08:44:55;25.30;99.90
10155;DHT22;5118;48.570;7.916;2022-08-19T08:47:34;25.30;99.90
10155;DHT22;5118;48.570;7.916;2022-08-19T08:50:20;25.40;99.90
10155;DHT22;5118;48.570;7.916;2022-08-19T08:52:56;25.50;99.90
10155;DHT22;5118;48.570;7.916;2022-08-19T08:55:28;25.70;99.90
10155;DHT22;5118;48.570;7.916;2022-08-19T08:58:05;25.80;99.90
10155;DHT22;5118;48.570;7.916;2022-08-19T09:00:37;25.90;99.90
10155;DHT22;5118;48.570;7.916;2022-08-19T09:03:18;26.10;99.90
10155;DHT22;5118;48.570;7.916;2022-08-19T09:05:59;26.20;99.90
10155;DHT22;5118;48.570;7.916;2022-08-19T09:08:40;26.40;99.90
10155;DHT22;5118;48.570;7.916;2022-08-19T09:11:15;26.50;99.90
10155;DHT22;5118;48.570;7.916;2022-08-19T09:14:12;26.60;99.90
10155;DHT22;5118;48.570;7.916;2022-08-19T09:17:03;26.70;99.90
10155;DHT22;5118;48.570;7.916;2022-08-19T09:19:35;26.60;99.90
10155;DHT22;5118;48.570;7.916;2022-08-19T09:22:06;26.60;99.90
10155;DHT22;5118;48.570;7.916;2022-08-19T09:24:38;26.80;99.90
10155;DHT22;5118;48.570;7.916;2022-08-19T09:27:06;26.90;99.90
10155;DHT22;5118;48.570;7.916;2022-08-19T09:29:44;27.00;99.90
10155;DHT22;5118;48.570;7.916;2022-08-19T09:32:16;27.00;99.90
10155;DHT22;5118;48.570;7.916;2022-08-19T09:34:53;27.10;99.90
10155;DHT22;5118;48.570;7.916;2022-08-19T09:37:22;27.10;99.90
10155;DHT22;5118;48.570;7.916;2022-08-19T09:39:52;27.20;99.90
10155;DHT22;5118;48.570;7.916;2022-08-19T09:42:21;27.40;99.90
10155;DHT22;5118;48.570;7.916;2022-08-19T09:45:01;27.60;99.90
10155;DHT22;5118;48.570;7.916;2022-08-19T09:47:31;27.80;99.90
10155;DHT22;5118;48.570;7.916;2022-08-19T09:50:08;27.90;99.90
10155;DHT22;5118;48.570;7.916;2022-08-19T09:52:42;28.00;99.90
10155;DHT22;5118;48.570;7.916;2022-08-19T09:55:25;28.20;99.90
10155;DHT22;5118;48.570;7.916;2022-08-19T09:58:00;28.30;99.90
10155;DHT22;5118;48.570;7.916;2022-08-19T10:00:29;28.60;99.90
10155;DHT22;5118;48.570;7.916;2022-08-19T10:02:58;28.80;99.90
10155;DHT22;5118;48.570;7.916;2022-08-19T10:05:27;28.90;99.90
10155;DHT22;5118;48.570;7.916;2022-08-19T10:08:16;29.20;99.90
10155;DHT22;5118;48.570;7.916;2022-08-19T10:10:48;29.30;99.90
10155;DHT22;5118;48.570;7.916;2022-08-19T10:13:19;29.30;99.90
10155;DHT22;5118;48.570;7.916;2022-08-19T10:15:50;29.40;99.90
10155;DHT22;5118;48.570;7.916;2022-08-19T10:18:20;29.40;99.90
10155;DHT22;5118;48.570;7.916;2022-08-19T10:20:50;29.20;99.90
10155;DHT22;5118;48.570;7.916;2022-08-19T10:23:20;29.10;99.90
10155;DHT22;5118;48.570;7.916;2022-08-19T10:25:50;29.20;99.90
10155;DHT22;5118;48.570;7.916;2022-08-19T10:28:20;29.50;99.90
10155;DHT22;5118;48.570;7.916;2022-08-19T10:30:50;29.70;99.90
10155;DHT22;5118;48.570;7.916;2022-08-19T10:33:19;29.70;99.90
10155;DHT22;5118;48.570;7.916;2022-08-19T10:36:11;29.90;99.90
10155;DHT22;5118;48.570;7.916;2022-08-19T10:38:46;30.00;99.90
10155;DHT22;5118;48.570;7.916;2022-08-19T10:41:23;30.00;99.90
10155;DHT22;5118;48.570;7.916;2022-08-19T10:43:53;29.80;99.90
10155;DHT22;5118;48.570;7.916;2022-08-19T10:46:24;30.00;99.90
10155;DHT22;5118;48.570;7.916;2022-08-19T10:48:53;29.90;99.90
10155;DHT22;5118;48.570;7.916;2022-08-19T10:51:22;30.10;99.90
10155;DHT22;5118;48.570;7.916;2022-08-19T10:54:15;30.20;99.90
10155;DHT22;5118;48.570;7.916;2022-08-19T10:57:00;29.50;99.90
10155;DHT22;5118;48.570;7.916;2022-08-19T10:59:29;29.30;99.90
10155;DHT22;5118;48.570;7.916;2022-08-19T11:02:06;29.30;99.90
10155;DHT22;5118;48.570;7.916;2022-08-19T11:04:37;29.10;99.90
10155;DHT22;5118;48.570;7.916;2022-08-19T11:07:06;28.90;99.90
10155;DHT22;5118;48.570;7.916;2022-08-19T11:09:38;28.50;99.90
10155;DHT22;5118;48.570;7.916;2022-08-19T11:12:10;28.50;99.90
10155;DHT22;5118;48.570;7.916;2022-08-19T11:14:39;28.50;99.90
10155;DHT22;5118;48.570;7.916;2022-08-19T11:17:08;28.30;99.90
10155;DHT22;5118;48.570;7.916;2022-08-19T11:19:38;28.10;99.90
10155;DHT22;5118;48.570;7.916;2022-08-19T11:22:08;28.10;99.90
10155;DHT22;5118;48.570;7.916;2022-08-19T11:24:42;27.80;99.90
10155;DHT22;5118;48.570;7.916;2022-08-19T11:27:12;27.90;99.90
10155;DHT22;5118;48.570;7.916;2022-08-19T11:29:41;27.90;99.90
10155;DHT22;5118;48.570;7.916;2022-08-19T11:32:10;28.00;99.90
10155;DHT22;5118;48.570;7.916;2022-08-19T11:34:40;28.10;99.90
10155;DHT22;5118;48.570;7.916;2022-08-19T11:37:09;28.20;99.90
10155;DHT22;5118;48.570;7.916;2022-08-19T11:39:38;28.20;99.90
10155;DHT22;5118;48.570;7.916;2022-08-19T11:42:07;28.20;99.90
10155;DHT22;5118;48.570;7.916;2022-08-19T11:44:51;28.30;99.90
10155;DHT22;5118;48.570;7.916;2022-08-19T11:47:20;28.30;99.90
10155;DHT22;5118;48.570;7.916;2022-08-19T11:49:49;28.40;99.90
10155;DHT22;5118;48.570;7.916;2022-08-19T11:52:18;28.40;99.90
10155;DHT22;5118;48.570;7.916;2022-08-19T11:54:47;28.50;99.90
10155;DHT22;5118;48.570;7.916;2022-08-19T11:57:15;28.70;99.90
10155;DHT22;5118;48.570;7.916;2022-08-19T11:59:48;28.90;99.90
10155;DHT22;5118;48.570;7.916;2022-08-19T12:02:19;29.10;99.90
10155;DHT22;5118;48.570;7.916;2022-08-19T12:04:49;29.50;99.70
10155;DHT22;5118;48.570;7.916;2022-08-19T12:07:17;29.70;99.40
10155;DHT22;5118;48.570;7.916;2022-08-19T12:09:46;30.10;98.40
10155;DHT22;5118;48.570;7.916;2022-08-19T12:12:15;30.40;98.10
10155;DHT22;5118;48.570;7.916;2022-08-19T12:14:43;31.30;97.80
10155;DHT22;5118;48.570;7.916;2022-08-19T12:17:13;32.20;96.00
10155;DHT22;5118;48.570;7.916;2022-08-19T12:19:43;33.40;94.70
10155;DHT22;5118;48.570;7.916;2022-08-19T12:22:12;34.30;91.60
10155;DHT22;5118;48.570;7.916;2022-08-19T12:24:40;34.60;87.10
10155;DHT22;5118;48.570;7.916;2022-08-19T12:27:10;35.00;82.40
10155;DHT22;5118;48.570;7.916;2022-08-19T12:29:39;35.30;76.40
10155;DHT22;5118;48.570;7.916;2022-08-19T12:32:08;35.80;74.70
10155;DHT22;5118;48.570;7.916;2022-08-19T12:34:38;36.20;71.60
10155;DHT22;5118;48.570;7.916;2022-08-19T12:37:09;36.60;69.00
10155;DHT22;5118;48.570;7.916;2022-08-19T12:39:40;36.50;65.00
10155;DHT22;5118;48.570;7.916;2022-08-19T12:42:09;36.90;63.30
10155;DHT22;5118;48.570;7.916;2022-08-19T12:44:39;37.20;60.20
10155;DHT22;5118;48.570;7.916;2022-08-19T12:47:10;37.20;58.00
10155;DHT22;5118;48.570;7.916;2022-08-19T12:49:40;37.30;57.00
10155;DHT22;5118;48.570;7.916;2022-08-19T12:52:24;37.30;56.30
10155;DHT22;5118;48.570;7.916;2022-08-19T12:54:56;37.20;53.30
10155;DHT22;5118;48.570;7.916;2022-08-19T12:57:28;37.40;55.30
10155;DHT22;5118;48.570;7.916;2022-08-19T13:00:03;38.30;55.20
10155;DHT22;5118;48.570;7.916;2022-08-19T13:02:34;39.20;51.80
10155;DHT22;5118;48.570;7.916;2022-08-19T13:05:07;39.30;49.50
10155;DHT22;5118;48.570;7.916;2022-08-19T13:07:39;38.90;47.80
10155;DHT22;5118;48.570;7.916;2022-08-19T13:10:11;38.10;47.50
10155;DHT22;5118;48.570;7.916;2022-08-19T13:12:42;36.90;48.00
10155;DHT22;5118;48.570;7.916;2022-08-19T13:15:12;35.70;49.10
10155;DHT22;5118;48.570;7.916;2022-08-19T13:17:41;34.90;50.50
10155;DHT22;5118;48.570;7.916;2022-08-19T13:20:10;34.60;52.50
10155;DHT22;5118;48.570;7.916;2022-08-19T13:22:41;34.70;52.10
10155;DHT22;5118;48.570;7.916;2022-08-19T13:25:10;34.40;51.60
10155;DHT22;5118;48.570;7.916;2022-08-19T13:27:39;34.20;52.50
10155;DHT22;5118;48.570;7.916;2022-08-19T13:30:10;33.60;52.90
10155;DHT22;5118;48.570;7.916;2022-08-19T13:32:57;33.20;53.80
10155;DHT22;5118;48.570;7.916;2022-08-19T13:35:45;32.40;56.50
10155;DHT22;5118;48.570;7.916;2022-08-19T13:38:18;31.70;59.60
10155;DHT22;5118;48.570;7.916;2022-08-19T13:40:48;31.00;63.00
10155;DHT22;5118;48.570;7.916;2022-08-19T13:43:19;30.50;64.10
10155;DHT22;5118;48.570;7.916;2022-08-19T13:45:50;30.00;66.50
10155;DHT22;5118;48.570;7.916;2022-08-19T13:48:25;29.70;67.70
10155;DHT22;5118;48.570;7.916;2022-08-19T13:50:54;29.40;68.00
10155;DHT22;5118;48.570;7.916;2022-08-19T13:53:24;29.10;67.90
10155;DHT22;5118;48.570;7.916;2022-08-19T13:55:53;28.90;68.00
10155;DHT22;5118;48.570;7.916;2022-08-19T13:58:22;28.70;68.50
10155;DHT22;5118;48.570;7.916;2022-08-19T14:00:51;28.50;69.00
10155;DHT22;5118;48.570;7.916;2022-08-19T14:03:19;28.50;69.10
10155;DHT22;5118;48.570;7.916;2022-08-19T14:05:48;28.40;69.50
10155;DHT22;5118;48.570;7.916;2022-08-19T14:08:18;28.50;69.60
10155;DHT22;5118;48.570;7.916;2022-08-19T14:10:48;28.60;70.10
10155;DHT22;5118;48.570;7.916;2022-08-19T14:13:20;28.60;70.30
10155;DHT22;5118;48.570;7.916;2022-08-19T14:15:50;28.70;70.50
10155;DHT22;5118;48.570;7.916;2022-08-19T14:18:19;28.70;69.60
10155;DHT22;5118;48.570;7.916;2022-08-19T14:20:47;28.70;69.70
10155;DHT22;5118;48.570;7.916;2022-08-19T14:23:16;28.80;70.00
10155;DHT22;5118;48.570;7.916;2022-08-19T14:25:45;28.90;70.40
10155;DHT22;5118;48.570;7.916;2022-08-19T14:28:14;29.00;70.20
10155;DHT22;5118;48.570;7.916;2022-08-19T14:30:44;29.10;70.00
10155;DHT22;5118;48.570;7.916;2022-08-19T14:33:12;29.20;70.30
10155;DHT22;5118;48.570;7.916;2022-08-19T14:35:41;29.30;70.10
10155;DHT22;5118;48.570;7.916;2022-08-19T14:38:16;29.50;70.10
10155;DHT22;5118;48.570;7.916;2022-08-19T14:41:06;29.60;69.30
10155;DHT22;5118;48.570;7.916;2022-08-19T14:43:37;29.80;69.10
10155;DHT22;5118;48.570;7.916;2022-08-19T14:46:06;29.90;68.00
10155;DHT22;5118;48.570;7.916;2022-08-19T14:48:37;30.10;67.90
10155;DHT22;5118;48.570;7.916;2022-08-19T14:51:08;30.20;67.60
10155;DHT22;5118;48.570;7.916;2022-08-19T14:53:37;30.40;67.70
10155;DHT22;5118;48.570;7.916;2022-08-19T14:56:09;30.50;66.60
10155;DHT22;5118;48.570;7.916;2022-08-19T14:58:40;30.60;68.30
10155;DHT22;5118;48.570;7.916;2022-08-19T15:01:10;30.70;70.00
10155;DHT22;5118;48.570;7.916;2022-08-19T15:03:39;30.80;71.10
10155;DHT22;5118;48.570;7.916;2022-08-19T15:06:09;30.90;71.60
10155;DHT22;5118;48.570;7.916;2022-08-19T15:08:40;30.80;70.70
10155;DHT22;5118;48.570;7.916;2022-08-19T15:11:12;30.80;69.40
10155;DHT22;5118;48.570;7.916;2022-08-19T15:13:43;30.80;67.70
10155;DHT22;5118;48.570;7.916;2022-08-19T15:16:13;31.00;66.00
10155;DHT22;5118;48.570;7.916;2022-08-19T15:18:45;31.80;64.20
10155;DHT22;5118;48.570;7.916;2022-08-19T15:21:15;33.00;61.50
10155;DHT22;5118;48.570;7.916;2022-08-19T15:23:55;34.20;56.90
10155;DHT22;5118;48.570;7.916;2022-08-19T15:26:24;34.80;54.70
10155;DHT22;5118;48.570;7.916;2022-08-19T15:28:54;35.10;54.60
10155;DHT22;5118;48.570;7.916;2022-08-19T15:31:23;35.40;53.20
10155;DHT22;5118;48.570;7.916;2022-08-19T15:33:55;36.20;52.60
10155;DHT22;5118;48.570;7.916;2022-08-19T15:36:25;37.00;51.80
10155;DHT22;5118;48.570;7.916;2022-08-19T15:38:55;37.30;49.30
10155;DHT22;5118;48.570;7.916;2022-08-19T15:41:26;37.50;48.30
10155;DHT22;5118;48.570;7.916;2022-08-19T15:43:59;37.10;46.60
10155;DHT22;5118;48.570;7.916;2022-08-19T15:46:32;37.50;46.60
10155;DHT22;5118;48.570;7.916;2022-08-19T15:49:02;37.50;46.20
10155;DHT22;5118;48.570;7.916;2022-08-19T15:51:33;36.80;46.30
10155;DHT22;5118;48.570;7.916;2022-08-19T15:54:06;35.70;46.30
10155;DHT22;5118;48.570;7.916;2022-08-19T15:56:35;34.60;48.10
10155;DHT22;5118;48.570;7.916;2022-08-19T15:59:36;34.90;48.70
10155;DHT22;5118;48.570;7.916;2022-08-19T16:02:28;35.10;47.20
10155;DHT22;5118;48.570;7.916;2022-08-19T16:05:23;35.40;46.80
10155;DHT22;5118;48.570;7.916;2022-08-19T16:08:10;35.30;47.30
10155;DHT22;5118;48.570;7.916;2022-08-19T16:10:39;35.90;47.10
10155;DHT22;5118;48.570;7.916;2022-08-19T16:13:08;35.70;46.20
10155;DHT22;5118;48.570;7.916;2022-08-19T16:15:38;36.30;45.80
10155;DHT22;5118;48.570;7.916;2022-08-19T16:18:10;36.70;44.70